Time;durP1;ratioP1;P1;durP2;ratioP2;P2;SDS_P1;SDS_P2;PMS_P1;PMS_P2;Temp;Humidity;BMP_temperature;BMP_pressure;BME280_temperature;BME280_humidity;BME280_pressure;Samples;Min_cycle;Max_cycle;Signal;HPM_P1;HPM_P2
2021/10/11 00:00:39;;;;;;;;;;;;;;;;;;2115219;28;19930;-46
2021/10/11 00:01:40;;;;;;;;;;;;;;;;;;2115353;28;19924;-46
2021/10/11 00:02:41;;;;;;;;;;;;;;;;;;2115509;28;19924;-44
2021/10/11 00:03:42;;;;;;;;;;;;;;;;;;2115180;28;19924;-46
2021/10/11 00:04:42;;;;;;;;;;;;;;;;;;2115463;28;19928;-47
2021/10/11 00:05:43;;;;;;;;;;;;;;;;;;2115225;28;20010;-47
2021/10/11 00:06:44;;;;;;;;;;;;;;;;;;2115462;28;19924;-44
2021/10/11 00:07:45;;;;;;;;;;;;;;;;;;2114965;28;19928;-46
2021/10/11 00:08:46;;;;;;;;;;;;;;;;;;2115264;28;19924;-45
2021/10/11 00:09:47;;;;;;;;;;;;;;;;;;2115097;28;19938;-46
2021/10/11 00:10:51;;;;;;;;;;;;;;;;;;2115329;28;19924;-47
2021/10/11 00:11:52;;;;;;;;;;;;;;;;;;2115076;28;20487;-46
2021/10/11 00:12:53;;;;;;;;;;;;;;;;;;2115419;28;19934;-47
2021/10/11 00:13:54;;;;;;;;;;;;;;;;;;2114954;28;19958;-46
2021/10/11 00:14:55;;;;;;;;;;;;;;;;;;2115190;28;19924;-46
2021/10/11 00:15:55;;;;;;;;;;;;;;;;;;2114970;28;19930;-47
2021/10/11 00:16:56;;;;;;;;;;;;;;;;;;2115279;28;20345;-46
2021/10/11 00:17:57;;;;;;;;;;;;;;;;;;2115177;28;19924;-47
2021/10/11 00:18:58;;;;;;;;;;;;;;;;;;2115179;28;19939;-46
2021/10/11 00:19:59;;;;;;;;;;;;;;;;;;2115039;28;19924;-45
2021/10/11 00:21:01;;;;;;;;;;;;;;;;;;2115247;28;19924;-47
2021/10/11 00:22:02;;;;;;;;;;;;;;;;;;2115082;28;19931;-46
2021/10/11 00:23:03;;;;;;;;;;;;;;;;;;2115196;28;19924;-45
2021/10/11 00:24:03;;;;;;;;;;;;;;;;;;2114845;28;19927;-46
2021/10/11 00:25:04;;;;;;;;;;;;;;;;;;2115261;28;19924;-46
2021/10/11 00:26:05;;;;;;;;;;;;;;;;;;2114812;28;20038;-46
2021/10/11 00:27:06;;;;;;;;;;;;;;;;;;2115444;28;19924;-46
2021/10/11 00:28:07;;;;;;;;;;;;;;;;;;2114866;28;19927;-45
2021/10/11 00:29:08;;;;;;;;;;;;;;;;;;2115278;28;19931;-47
2021/10/11 00:30:09;;;;;;;;;;;;;;;;;;2114970;28;20372;-46
2021/10/11 00:31:10;;;;;;;;;;;;;;;;;;2115277;28;20380;-43
2021/10/11 00:32:11;;;;;;;;;;;;;;;;;;2115186;28;19927;-44
2021/10/11 00:33:12;;;;;;;;;;;;;;;;;;2115378;28;19928;-46
2021/10/11 00:34:12;;;;;;;;;;;;;;;;;;2115113;28;20335;-44
2021/10/11 00:35:13;;;;;;;;;;;;;;;;;;2115120;28;19950;-46
2021/10/11 00:36:14;;;;;;;;;;;;;;;;;;2114993;28;19924;-43
2021/10/11 00:37:15;;;;;;;;;;;;;;;;;;2114856;28;19924;-46
2021/10/11 00:38:16;;;;;;;;;;;;;;;;;;2115145;28;19924;-46
2021/10/11 00:39:17;;;;;;;;;;;;;;;;;;2115044;28;20294;-45
2021/10/11 00:40:17;;;;;;;;;;;;;;;;;;2115106;28;20204;-46
2021/10/11 00:41:18;;;;;;;;;;;;;;;;;;2114898;28;19928;-45
2021/10/11 00:42:19;;;;;;;;;;;;;;;;;;2115035;28;19924;-46
2021/10/11 00:43:20;;;;;;;;;;;;;;;;;;2114981;28;19946;-45
2021/10/11 00:44:21;;;;;;;;;;;;;;;;;;2115033;28;19953;-45
2021/10/11 00:45:22;;;;;;;;;;;;;;;;;;2114870;28;19953;-45
2021/10/11 00:46:22;;;;;;;;;;;;;;;;;;2114866;28;19924;-44
2021/10/11 00:47:23;;;;;;;;;;;;;;;;;;2115048;28;19928;-46
2021/10/11 00:48:24;;;;;;;;;;;;;;;;;;2115168;28;20327;-46
2021/10/11 00:49:25;;;;;;;;;;;;;;;;;;2114873;28;20308;-46
2021/10/11 00:50:26;;;;;;;;;;;;;;;;;;2114864;28;19930;-46
2021/10/11 00:51:26;;;;;;;;;;;;;;;;;;2114989;28;19930;-44
2021/10/11 00:52:27;;;;;;;;;;;;;;;;;;2114844;28;19946;-46
2021/10/11 00:53:28;;;;;;;;;;;;;;;;;;2114973;28;19928;-44
2021/10/11 00:54:29;;;;;;;;;;;;;;;;;;2115084;28;19931;-46
2021/10/11 00:55:30;;;;;;;;;;;;;;;;;;2114886;28;20361;-46
2021/10/11 00:56:30;;;;;;;;;;;;;;;;;;2114912;28;19973;-46
2021/10/11 00:57:31;;;;;;;;;;;;;;;;;;2114871;28;20339;-46
2021/10/11 00:58:32;;;;;;;;;;;;;;;;;;2115119;28;20315;-46
2021/10/11 00:59:33;;;;;;;;;;;;;;;;;;2114897;28;19930;-47
2021/10/11 01:00:34;;;;;;;;;;;;;;;;;;2114756;28;19927;-44
2021/10/11 01:01:34;;;;;;;;;;;;;;;;;;2114932;28;19973;-46
2021/10/11 01:02:35;;;;;;;;;;;;;;;;;;2114889;28;19943;-45
2021/10/11 01:03:37;;;;;;;;;;;;;;;;;;2115115;28;19989;-46
2021/10/11 01:04:38;;;;;;;;;;;;;;;;;;2114902;28;20026;-46
2021/10/11 01:05:39;;;;;;;;;;;;;;;;;;2114975;28;19924;-45
2021/10/11 01:06:40;;;;;;;;;;;;;;;;;;2114633;28;20342;-45
2021/10/11 01:07:40;;;;;;;;;;;;;;;;;;2115149;28;19924;-45
2021/10/11 01:08:41;;;;;;;;;;;;;;;;;;2114691;28;19946;-46
2021/10/11 01:09:42;;;;;;;;;;;;;;;;;;2115022;28;19923;-46
2021/10/11 01:10:43;;;;;;;;;;;;;;;;;;2113574;28;20396;-46
2021/10/11 01:11:47;;;;;;;;;;;;;;;;;;2114722;28;19927;-46
2021/10/11 01:12:48;;;;;;;;;;;;;;;;;;2114685;28;20359;-46
2021/10/11 01:13:49;;;;;;;;;;;;;;;;;;2115112;28;19924;-46
2021/10/11 01:14:50;;;;;;;;;;;;;;;;;;2114727;28;20373;-46
2021/10/11 01:15:51;;;;;;;;;;;;;;;;;;2114873;28;19924;-46
2021/10/11 01:16:52;;;;;;;;;;;;;;;;;;2114611;28;19924;-46
2021/10/11 01:17:52;;;;;;;;;;;;;;;;;;2115033;28;19927;-46
2021/10/11 01:18:53;;;;;;;;;;;;;;;;;;2114736;28;19936;-45
2021/10/11 01:19:54;;;;;;;;;;;;;;;;;;2114890;28;19953;-45
2021/10/11 01:20:55;;;;;;;;;;;;;;;;;;2114652;28;19959;-45
2021/10/11 01:21:55;;;;;;;;;;;;;;;;;;2114756;28;20280;-45
2021/10/11 01:22:56;;;;;;;;;;;;;;;;;;2114684;28;20066;-44
2021/10/11 01:23:57;;;;;;;;;;;;;;;;;;2114921;28;19924;-44
2021/10/11 01:24:58;;;;;;;;;;;;;;;;;;2114659;28;19931;-46
2021/10/11 01:25:59;;;;;;;;;;;;;;;;;;2114854;28;19923;-46
2021/10/11 01:27:00;;;;;;;;;;;;;;;;;;2114526;28;19924;-46
2021/10/11 01:28:01;;;;;;;;;;;;;;;;;;2115062;28;20465;-44
2021/10/11 01:29:02;;;;;;;;;;;;;;;;;;2114547;28;19923;-46
2021/10/11 01:30:02;;;;;;;;;;;;;;;;;;2114780;28;20135;-43
2021/10/11 01:31:03;;;;;;;;;;;;;;;;;;2114663;28;19935;-46
2021/10/11 01:32:04;;;;;;;;;;;;;;;;;;2114794;28;19924;-44
2021/10/11 01:33:05;;;;;;;;;;;;;;;;;;2114722;28;19923;-44
2021/10/11 01:34:06;;;;;;;;;;;;;;;;;;2114544;28;20003;-45
2021/10/11 01:35:07;;;;;;;;;;;;;;;;;;2114770;28;19924;-46
2021/10/11 01:36:07;;;;;;;;;;;;;;;;;;2114441;28;19924;-46
2021/10/11 01:37:08;;;;;;;;;;;;;;;;;;2114805;28;19924;-45
2021/10/11 01:38:09;;;;;;;;;;;;;;;;;;2114525;28;20380;-45
2021/10/11 01:39:10;;;;;;;;;;;;;;;;;;2114649;28;20400;-46
2021/10/11 01:40:11;;;;;;;;;;;;;;;;;;2114591;28;19930;-45
2021/10/11 01:41:12;;;;;;;;;;;;;;;;;;2114779;28;19928;-44
2021/10/11 01:42:12;;;;;;;;;;;;;;;;;;2114515;28;20342;-46
2021/10/11 01:43:13;;;;;;;;;;;;;;;;;;2114575;28;19927;-46
2021/10/11 01:44:14;;;;;;;;;;;;;;;;;;2114447;28;20427;-46
2021/10/11 01:45:15;;;;;;;;;;;;;;;;;;2114823;28;19924;-46
2021/10/11 01:46:16;;;;;;;;;;;;;;;;;;2114535;28;19924;-46
2021/10/11 01:47:17;;;;;;;;;;;;;;;;;;2114704;28;20399;-44
2021/10/11 01:48:18;;;;;;;;;;;;;;;;;;2114511;28;19924;-46
2021/10/11 01:49:19;;;;;;;;;;;;;;;;;;2114674;28;19924;-44
2021/10/11 01:50:19;;;;;;;;;;;;;;;;;;2114573;28;19930;-46
2021/10/11 01:51:22;;;;;;;;;;;;;;;;;;2114761;28;20157;-46
2021/10/11 01:52:24;;;;;;;;;;;;;;;;;;2114348;28;19963;-44
2021/10/11 01:53:25;;;;;;;;;;;;;;;;;;2114739;28;19970;-45
2021/10/11 01:54:25;;;;;;;;;;;;;;;;;;2114448;28;19985;-44
2021/10/11 01:55:26;;;;;;;;;;;;;;;;;;2114502;28;19930;-45
2021/10/11 01:56:27;;;;;;;;;;;;;;;;;;2114287;28;19936;-44
2021/10/11 01:57:28;;;;;;;;;;;;;;;;;;2114654;28;19935;-44
2021/10/11 01:58:29;;;;;;;;;;;;;;;;;;2114315;28;20039;-45
2021/10/11 01:59:30;;;;;;;;;;;;;;;;;;2114582;28;20438;-44
2021/10/11 02:00:30;;;;;;;;;;;;;;;;;;2114396;28;19924;-44
2021/10/11 02:01:31;;;;;;;;;;;;;;;;;;2114652;28;19954;-44
2021/10/11 02:02:32;;;;;;;;;;;;;;;;;;2114472;28;20300;-44
2021/10/11 02:03:33;;;;;;;;;;;;;;;;;;2114645;28;19934;-45
2021/10/11 02:04:34;;;;;;;;;;;;;;;;;;2114503;28;20390;-44
2021/10/11 02:05:35;;;;;;;;;;;;;;;;;;2114420;28;19962;-44
2021/10/11 02:06:35;;;;;;;;;;;;;;;;;;2114442;28;19923;-44
2021/10/11 02:07:36;;;;;;;;;;;;;;;;;;2114619;28;19930;-44
2021/10/11 02:08:37;;;;;;;;;;;;;;;;;;2114536;28;19924;-44
2021/10/11 02:09:38;;;;;;;;;;;;;;;;;;2114384;28;19924;-44
2021/10/11 02:10:38;;;;;;;;;;;;;;;;;;2114480;28;19931;-45
2021/10/11 02:11:39;;;;;;;;;;;;;;;;;;2114487;28;20463;-45
2021/10/11 02:12:40;;;;;;;;;;;;;;;;;;2114594;28;19928;-46
2021/10/11 02:13:41;;;;;;;;;;;;;;;;;;2114406;28;19931;-46
2021/10/11 02:14:42;;;;;;;;;;;;;;;;;;2114539;28;19923;-45
2021/10/11 02:15:43;;;;;;;;;;;;;;;;;;2114266;28;19977;-44
2021/10/11 02:16:43;;;;;;;;;;;;;;;;;;2114358;28;20399;-45
2021/10/11 02:17:44;;;;;;;;;;;;;;;;;;2114495;28;20326;-45
2021/10/11 02:18:45;;;;;;;;;;;;;;;;;;2114323;28;19923;-46
2021/10/11 02:19:46;;;;;;;;;;;;;;;;;;2114307;28;19924;-46
2021/10/11 02:20:46;;;;;;;;;;;;;;;;;;2114260;28;19924;-44
2021/10/11 02:21:47;;;;;;;;;;;;;;;;;;2114212;28;19930;-43
2021/10/11 02:22:48;;;;;;;;;;;;;;;;;;2114233;28;19923;-46
2021/10/11 02:23:49;;;;;;;;;;;;;;;;;;2114527;28;20387;-45
2021/10/11 02:24:49;;;;;;;;;;;;;;;;;;2114304;28;19924;-46
2021/10/11 02:25:50;;;;;;;;;;;;;;;;;;2114478;28;20288;-46
2021/10/11 02:26:51;;;;;;;;;;;;;;;;;;2114202;28;19923;-46
2021/10/11 02:27:52;;;;;;;;;;;;;;;;;;2114587;28;19968;-44
2021/10/11 02:28:53;;;;;;;;;;;;;;;;;;2114082;28;19930;-45
2021/10/11 02:29:54;;;;;;;;;;;;;;;;;;2114411;28;19928;-46
2021/10/11 02:30:54;;;;;;;;;;;;;;;;;;2114043;28;20372;-45
2021/10/11 02:31:55;;;;;;;;;;;;;;;;;;2114408;28;19984;-46
2021/10/11 02:32:56;;;;;;;;;;;;;;;;;;2114223;28;19923;-46
2021/10/11 02:33:57;;;;;;;;;;;;;;;;;;2114437;28;20299;-46
2021/10/11 02:34:57;;;;;;;;;;;;;;;;;;2114245;28;19968;-44
2021/10/11 02:35:58;;;;;;;;;;;;;;;;;;2114187;28;19931;-44
2021/10/11 02:36:59;;;;;;;;;;;;;;;;;;2114195;28;19924;-45
2021/10/11 02:38:00;;;;;;;;;;;;;;;;;;2114463;28;19935;-46
2021/10/11 02:39:01;;;;;;;;;;;;;;;;;;2114101;28;20288;-46
2021/10/11 02:40:02;;;;;;;;;;;;;;;;;;2114378;28;19923;-46
2021/10/11 02:41:02;;;;;;;;;;;;;;;;;;2114004;28;19976;-46
2021/10/11 02:42:03;;;;;;;;;;;;;;;;;;2114433;28;19934;-46
2021/10/11 02:43:04;;;;;;;;;;;;;;;;;;2114161;28;19928;-46
2021/10/11 02:44:05;;;;;;;;;;;;;;;;;;2114359;28;19923;-46
2021/10/11 02:45:06;;;;;;;;;;;;;;;;;;2114094;28;20247;-46
2021/10/11 02:46:07;;;;;;;;;;;;;;;;;;2114291;28;19928;-46
2021/10/11 02:47:07;;;;;;;;;;;;;;;;;;2113905;28;19924;-46
2021/10/11 02:48:08;;;;;;;;;;;;;;;;;;2114484;28;19931;-44
2021/10/11 02:49:09;;;;;;;;;;;;;;;;;;2114116;28;19924;-46
2021/10/11 02:50:10;;;;;;;;;;;;;;;;;;2114300;28;19924;-45
2021/10/11 02:51:11;;;;;;;;;;;;;;;;;;2114114;28;19924;-43
2021/10/11 02:52:12;;;;;;;;;;;;;;;;;;2114178;28;19932;-46
2021/10/11 02:53:13;;;;;;;;;;;;;;;;;;2114114;28;19931;-46
2021/10/11 02:54:16;;;;;;;;;;;;;;;;;;2114255;28;20136;-43
2021/10/11 02:55:17;;;;;;;;;;;;;;;;;;2114233;28;20010;-46
2021/10/11 02:56:18;;;;;;;;;;;;;;;;;;2114059;28;19923;-43
2021/10/11 02:57:19;;;;;;;;;;;;;;;;;;2114241;28;19931;-43
2021/10/11 02:58:20;;;;;;;;;;;;;;;;;;2114171;28;19928;-46
2021/10/11 02:59:20;;;;;;;;;;;;;;;;;;2114276;28;19924;-45
2021/10/11 03:00:21;;;;;;;;;;;;;;;;;;2114240;28;19924;-46
2021/10/11 03:01:22;;;;;;;;;;;;;;;;;;2114072;28;19939;-46
2021/10/11 03:02:23;;;;;;;;;;;;;;;;;;2114142;28;19928;-45
2021/10/11 03:03:24;;;;;;;;;;;;;;;;;;2114271;28;19927;-45
2021/10/11 03:04:25;;;;;;;;;;;;;;;;;;2114264;28;19924;-46
2021/10/11 03:05:25;;;;;;;;;;;;;;;;;;2114118;28;20384;-43
2021/10/11 03:06:26;;;;;;;;;;;;;;;;;;2114176;28;19924;-46
2021/10/11 03:07:29;;;;;;;;;;;;;;;;;;2114037;28;19946;-46
2021/10/11 03:08:30;;;;;;;;;;;;;;;;;;2114138;28;19924;-45
2021/10/11 03:09:31;;;;;;;;;;;;;;;;;;2114060;28;20326;-46
2021/10/11 03:10:31;;;;;;;;;;;;;;;;;;2114003;28;19923;-44
2021/10/11 03:11:32;;;;;;;;;;;;;;;;;;2114160;28;19930;-45
2021/10/11 03:12:35;;;;;;;;;;;;;;;;;;2114120;28;20108;-44
2021/10/11 03:13:36;;;;;;;;;;;;;;;;;;2114255;28;20014;-45
2021/10/11 03:14:37;;;;;;;;;;;;;;;;;;2114030;28;19923;-43
2021/10/11 03:15:37;;;;;;;;;;;;;;;;;;2114155;28;19924;-45
2021/10/11 03:16:38;;;;;;;;;;;;;;;;;;2114039;28;19957;-43
2021/10/11 03:17:39;;;;;;;;;;;;;;;;;;2114144;28;19923;-46
2021/10/11 03:18:40;;;;;;;;;;;;;;;;;;2114056;28;19970;-46
2021/10/11 03:19:41;;;;;;;;;;;;;;;;;;2114250;28;20006;-47
2021/10/11 03:20:41;;;;;;;;;;;;;;;;;;2114067;28;19931;-46
2021/10/11 03:21:42;;;;;;;;;;;;;;;;;;2113889;28;19924;-46
2021/10/11 03:22:43;;;;;;;;;;;;;;;;;;2114152;28;20241;-46
2021/10/11 03:23:44;;;;;;;;;;;;;;;;;;2113962;28;19928;-46
2021/10/11 03:24:45;;;;;;;;;;;;;;;;;;2114097;28;19924;-46
2021/10/11 03:25:46;;;;;;;;;;;;;;;;;;2113753;28;19927;-46
2021/10/11 03:26:46;;;;;;;;;;;;;;;;;;2114126;28;20372;-46
2021/10/11 03:27:47;;;;;;;;;;;;;;;;;;2113951;28;19953;-44
2021/10/11 03:28:48;;;;;;;;;;;;;;;;;;2114369;28;19930;-44
2021/10/11 03:29:49;;;;;;;;;;;;;;;;;;2113749;28;20304;-44
2021/10/11 03:30:50;;;;;;;;;;;;;;;;;;2114084;28;19928;-44
2021/10/11 03:31:50;;;;;;;;;;;;;;;;;;2113982;28;19955;-45
2021/10/11 03:32:51;;;;;;;;;;;;;;;;;;2114048;28;19931;-46
2021/10/11 03:33:52;;;;;;;;;;;;;;;;;;2113826;28;19977;-46
2021/10/11 03:34:53;;;;;;;;;;;;;;;;;;2115533;28;19931;-45
2021/10/11 03:35:53;;;;;;;;;;;;;;;;;;2115328;28;20286;-45
2021/10/11 03:36:54;;;;;;;;;;;;;;;;;;2115555;28;20333;-46
2021/10/11 03:37:55;;;;;;;;;;;;;;;;;;2115308;28;19931;-46
2021/10/11 03:38:56;;;;;;;;;;;;;;;;;;2115482;28;19923;-46
2021/10/11 03:39:57;;;;;;;;;;;;;;;;;;2115331;28;19972;-46
2021/10/11 03:40:58;;;;;;;;;;;;;;;;;;2115575;28;19924;-45
2021/10/11 03:41:58;;;;;;;;;;;;;;;;;;2115182;28;19953;-44
2021/10/11 03:43:00;;;;;;;;;;;;;;;;;;2115805;28;20011;-46
2021/10/11 03:44:00;;;;;;;;;;;;;;;;;;2115214;28;19958;-46
2021/10/11 03:45:01;;;;;;;;;;;;;;;;;;2115474;28;19927;-45
2021/10/11 03:46:02;;;;;;;;;;;;;;;;;;2115229;28;19923;-46
2021/10/11 03:47:03;;;;;;;;;;;;;;;;;;2115567;28;19924;-46
2021/10/11 03:48:03;;;;;;;;;;;;;;;;;;2115353;28;20388;-46
2021/10/11 03:49:05;;;;;;;;;;;;;;;;;;2115584;28;19923;-44
2021/10/11 03:50:06;;;;;;;;;;;;;;;;;;2115344;28;19924;-44
2021/10/11 03:51:06;;;;;;;;;;;;;;;;;;2115487;28;20387;-44
2021/10/11 03:52:07;;;;;;;;;;;;;;;;;;2115481;28;19931;-45
2021/10/11 03:53:09;;;;;;;;;;;;;;;;;;2115350;28;20059;-45
2021/10/11 03:54:09;;;;;;;;;;;;;;;;;;2115511;28;19924;-44
2021/10/11 03:55:10;;;;;;;;;;;;;;;;;;2115214;28;19923;-46
2021/10/11 03:56:11;;;;;;;;;;;;;;;;;;2115172;28;19934;-46
2021/10/11 03:57:12;;;;;;;;;;;;;;;;;;2115202;28;19927;-44
2021/10/11 03:58:13;;;;;;;;;;;;;;;;;;2115543;28;19947;-44
2021/10/11 03:59:14;;;;;;;;;;;;;;;;;;2115236;28;20015;-44
2021/10/11 04:00:14;;;;;;;;;;;;;;;;;;2115379;28;20277;-44
2021/10/11 04:01:15;;;;;;;;;;;;;;;;;;2115216;28;19924;-44
2021/10/11 04:02:16;;;;;;;;;;;;;;;;;;2115282;28;20608;-45
2021/10/11 04:03:17;;;;;;;;;;;;;;;;;;2115117;28;19953;-44
2021/10/11 04:04:20;;;;;;;;;;;;;;;;;;2115404;28;19930;-44
2021/10/11 04:05:21;;;;;;;;;;;;;;;;;;2115126;28;20045;-44
2021/10/11 04:06:22;;;;;;;;;;;;;;;;;;2115377;28;19924;-43
2021/10/11 04:07:23;;;;;;;;;;;;;;;;;;2115193;28;20014;-46
2021/10/11 04:08:32;;;;;;;;;;;;;;;;;;2115271;28;20018;-46
2021/10/11 04:09:33;;;;;;;;;;;;;;;;;;2115185;28;20014;-46
2021/10/11 04:10:37;;;;;;;;;;;;;;;;;;2115199;28;19928;-46
2021/10/11 04:11:38;;;;;;;;;;;;;;;;;;2115087;28;19963;-46
2021/10/11 04:12:40;;;;;;;;;;;;;;;;;;2115363;28;19930;-45
2021/10/11 04:13:40;;;;;;;;;;;;;;;;;;2115066;28;19923;-46
2021/10/11 04:14:41;;;;;;;;;;;;;;;;;;2115219;28;19923;-46
2021/10/11 04:15:42;;;;;;;;;;;;;;;;;;2114893;28;19924;-46
2021/10/11 04:16:43;;;;;;;;;;;;;;;;;;2115309;28;19923;-46
2021/10/11 04:17:44;;;;;;;;;;;;;;;;;;2115043;28;20453;-46
2021/10/11 04:18:44;;;;;;;;;;;;;;;;;;2115388;28;19927;-46
2021/10/11 04:19:45;;;;;;;;;;;;;;;;;;2115130;28;19924;-46
2021/10/11 04:20:46;;;;;;;;;;;;;;;;;;2115290;28;19924;-46
2021/10/11 04:21:47;;;;;;;;;;;;;;;;;;2115022;28;19924;-44
2021/10/11 04:22:48;;;;;;;;;;;;;;;;;;2115241;28;20376;-44
2021/10/11 04:23:49;;;;;;;;;;;;;;;;;;2114917;28;19972;-44
2021/10/11 04:24:49;;;;;;;;;;;;;;;;;;2115196;28;19924;-45
2021/10/11 04:25:50;;;;;;;;;;;;;;;;;;2115046;28;19945;-45
2021/10/11 04:26:51;;;;;;;;;;;;;;;;;;2115127;28;19927;-45
2021/10/11 04:27:52;;;;;;;;;;;;;;;;;;2115067;28;19977;-45
2021/10/11 04:28:53;;;;;;;;;;;;;;;;;;2115071;28;19934;-45
2021/10/11 04:29:53;;;;;;;;;;;;;;;;;;2115140;28;19934;-45
2021/10/11 04:30:54;;;;;;;;;;;;;;;;;;2114904;28;19936;-45
2021/10/11 04:31:55;;;;;;;;;;;;;;;;;;2115122;28;19928;-45
2021/10/11 04:32:56;;;;;;;;;;;;;;;;;;2115002;28;20372;-45
2021/10/11 04:33:57;;;;;;;;;;;;;;;;;;2115021;28;20019;-45
2021/10/11 04:34:57;;;;;;;;;;;;;;;;;;2115129;28;19931;-45
2021/10/11 04:35:59;;;;;;;;;;;;;;;;;;2115136;28;19923;-45
2021/10/11 04:36:59;;;;;;;;;;;;;;;;;;2114886;28;20010;-45
2021/10/11 04:38:00;;;;;;;;;;;;;;;;;;2114996;28;19931;-45
2021/10/11 04:39:01;;;;;;;;;;;;;;;;;;2115010;28;19967;-45
2021/10/11 04:40:02;;;;;;;;;;;;;;;;;;2114983;28;19923;-45
2021/10/11 04:41:03;;;;;;;;;;;;;;;;;;2114886;28;19930;-45
2021/10/11 04:42:04;;;;;;;;;;;;;;;;;;2115030;28;19939;-45
2021/10/11 04:43:04;;;;;;;;;;;;;;;;;;2114887;28;20388;-45
2021/10/11 04:44:05;;;;;;;;;;;;;;;;;;2115002;28;19978;-45
2021/10/11 04:45:06;;;;;;;;;;;;;;;;;;2114795;28;19927;-45
2021/10/11 04:46:07;;;;;;;;;;;;;;;;;;2115045;28;19923;-45
2021/10/11 04:47:08;;;;;;;;;;;;;;;;;;2114819;28;20483;-45
2021/10/11 04:48:09;;;;;;;;;;;;;;;;;;2115051;28;20023;-45
2021/10/11 04:49:10;;;;;;;;;;;;;;;;;;2114891;28;19924;-45
2021/10/11 04:50:11;;;;;;;;;;;;;;;;;;2114981;28;19924;-45
2021/10/11 04:51:12;;;;;;;;;;;;;;;;;;2114797;28;19928;-45
2021/10/11 04:52:12;;;;;;;;;;;;;;;;;;2114982;28;19924;-45
2021/10/11 04:53:13;;;;;;;;;;;;;;;;;;2115040;28;19928;-45
2021/10/11 04:54:14;;;;;;;;;;;;;;;;;;2114834;28;19955;-45
2021/10/11 04:55:15;;;;;;;;;;;;;;;;;;2115130;28;20426;-45
2021/10/11 04:56:16;;;;;;;;;;;;;;;;;;2114822;28;20353;-45
2021/10/11 04:57:16;;;;;;;;;;;;;;;;;;2115025;28;19923;-45
2021/10/11 04:58:17;;;;;;;;;;;;;;;;;;2114664;28;19924;-46
2021/10/11 04:59:18;;;;;;;;;;;;;;;;;;2115036;28;19924;-46
2021/10/11 05:00:19;;;;;;;;;;;;;;;;;;2114748;28;19924;-45
2021/10/11 05:01:21;;;;;;;;;;;;;;;;;;2115058;28;20421;-46
2021/10/11 05:02:22;;;;;;;;;;;;;;;;;;2114645;28;20010;-46
2021/10/11 05:03:22;;;;;;;;;;;;;;;;;;2115020;28;19924;-45
2021/10/11 05:04:23;;;;;;;;;;;;;;;;;;2114836;28;19998;-45
2021/10/11 05:05:24;;;;;;;;;;;;;;;;;;2115118;28;20380;-45
2021/10/11 05:06:25;;;;;;;;;;;;;;;;;;2114752;28;19923;-45
2021/10/11 05:07:26;;;;;;;;;;;;;;;;;;2114922;28;19924;-45
2021/10/11 05:08:26;;;;;;;;;;;;;;;;;;2114696;28;19923;-45
2021/10/11 05:09:27;;;;;;;;;;;;;;;;;;2114919;28;19924;-45
2021/10/11 05:10:28;;;;;;;;;;;;;;;;;;2114505;28;20433;-45
2021/10/11 05:11:29;;;;;;;;;;;;;;;;;;2115064;28;19923;-51
2021/10/11 05:12:30;;;;;;;;;;;;;;;;;;2114821;28;19923;-52
2021/10/11 05:13:30;;;;;;;;;;;;;;;;;;2114980;28;20273;-55
2021/10/11 05:14:31;;;;;;;;;;;;;;;;;;2114727;28;20376;-55
2021/10/11 05:15:32;;;;;;;;;;;;;;;;;;2115081;28;19927;-54
2021/10/11 05:16:35;;;;;;;;;;;;;;;;;;2114439;28;19923;-54
2021/10/11 05:17:36;;;;;;;;;;;;;;;;;;2114853;28;20406;-54
2021/10/11 05:18:37;;;;;;;;;;;;;;;;;;2114593;28;20006;-54
2021/10/11 05:19:38;;;;;;;;;;;;;;;;;;2115021;28;20014;-53
2021/10/11 05:20:44;;;;;;;;;;;;;;;;;;2114716;28;19924;-55
2021/10/11 05:21:45;;;;;;;;;;;;;;;;;;2114996;28;20007;-54
2021/10/11 05:22:46;;;;;;;;;;;;;;;;;;2114627;28;19924;-54
2021/10/11 05:23:47;;;;;;;;;;;;;;;;;;2114929;28;19991;-55
2021/10/11 05:24:48;;;;;;;;;;;;;;;;;;2114702;28;20290;-54
2021/10/11 05:25:49;;;;;;;;;;;;;;;;;;2114824;28;19972;-55
2021/10/11 05:26:50;;;;;;;;;;;;;;;;;;2114829;28;19924;-53
2021/10/11 05:27:51;;;;;;;;;;;;;;;;;;2114809;28;19969;-54
2021/10/11 05:28:51;;;;;;;;;;;;;;;;;;2114867;28;19930;-54
2021/10/11 05:29:52;;;;;;;;;;;;;;;;;;2114744;28;19924;-53
2021/10/11 05:30:54;;;;;;;;;;;;;;;;;;2114670;28;19923;-55
2021/10/11 05:31:55;;;;;;;;;;;;;;;;;;2114611;28;20014;-54
2021/10/11 05:32:56;;;;;;;;;;;;;;;;;;2114791;28;19930;-54
2021/10/11 05:33:57;;;;;;;;;;;;;;;;;;2114519;28;19973;-55
2021/10/11 05:34:58;;;;;;;;;;;;;;;;;;2114699;28;19924;-54
2021/10/11 05:35:59;;;;;;;;;;;;;;;;;;2114494;28;20443;-55
2021/10/11 05:37:00;;;;;;;;;;;;;;;;;;2114695;28;19931;-55
2021/10/11 05:38:01;;;;;;;;;;;;;;;;;;2114639;28;20320;-55
2021/10/11 05:39:02;;;;;;;;;;;;;;;;;;2114677;28;20613;-55
2021/10/11 05:40:02;;;;;;;;;;;;;;;;;;2114580;28;19930;-55
2021/10/11 05:41:03;;;;;;;;;;;;;;;;;;2114604;28;19924;-55
2021/10/11 05:42:06;;;;;;;;;;;;;;;;;;2114557;28;19980;-55
2021/10/11 05:43:07;;;;;;;;;;;;;;;;;;2114603;28;20077;-55
2021/10/11 05:44:08;;;;;;;;;;;;;;;;;;2114646;28;20015;-55
2021/10/11 05:45:08;;;;;;;;;;;;;;;;;;2114691;28;20315;-55
2021/10/11 05:46:09;;;;;;;;;;;;;;;;;;2114619;28;20010;-55
2021/10/11 05:47:11;;;;;;;;;;;;;;;;;;2114611;28;19924;-54
2021/10/11 05:48:11;;;;;;;;;;;;;;;;;;2114454;28;20562;-55
2021/10/11 05:49:12;;;;;;;;;;;;;;;;;;2114661;28;19931;-54
2021/10/11 05:50:13;;;;;;;;;;;;;;;;;;2114535;28;19924;-55
2021/10/11 05:51:14;;;;;;;;;;;;;;;;;;2114606;28;19950;-56
2021/10/11 05:52:15;;;;;;;;;;;;;;;;;;2114493;28;20277;-56
2021/10/11 05:53:15;;;;;;;;;;;;;;;;;;2114584;28;19924;-56
2021/10/11 05:54:16;;;;;;;;;;;;;;;;;;2114688;28;20062;-56
2021/10/11 05:55:17;;;;;;;;;;;;;;;;;;2114694;28;20018;-56
2021/10/11 05:56:18;;;;;;;;;;;;;;;;;;2114346;28;19950;-56
2021/10/11 05:57:19;;;;;;;;;;;;;;;;;;2113993;28;20528;-56
2021/10/11 05:58:20;;;;;;;;;;;;;;;;;;2114655;28;19924;-56
2021/10/11 05:59:21;;;;;;;;;;;;;;;;;;2114576;28;20277;-56
2021/10/11 06:00:22;;;;;;;;;;;;;;;;;;2114440;28;19923;-56
2021/10/11 06:01:22;;;;;;;;;;;;;;;;;;2114303;28;19931;-56
2021/10/11 06:02:23;;;;;;;;;;;;;;;;;;2114677;28;20304;-57
2021/10/11 06:03:24;;;;;;;;;;;;;;;;;;2114379;28;20334;-56
2021/10/11 06:04:25;;;;;;;;;;;;;;;;;;2114615;28;19924;-57
2021/10/11 06:05:26;;;;;;;;;;;;;;;;;;2114340;28;20023;-56
2021/10/11 06:06:27;;;;;;;;;;;;;;;;;;2114617;28;19930;-56
2021/10/11 06:07:28;;;;;;;;;;;;;;;;;;2114588;28;19924;-56
2021/10/11 06:08:29;;;;;;;;;;;;;;;;;;2114438;28;19928;-56
2021/10/11 06:09:29;;;;;;;;;;;;;;;;;;2114353;28;19924;-55
2021/10/11 06:10:31;;;;;;;;;;;;;;;;;;2114483;28;20023;-56
2021/10/11 06:11:31;;;;;;;;;;;;;;;;;;2114358;28;19928;-57
2021/10/11 06:12:32;;;;;;;;;;;;;;;;;;2114376;28;19924;-56
2021/10/11 06:13:33;;;;;;;;;;;;;;;;;;2114334;28;20399;-54
2021/10/11 06:14:34;;;;;;;;;;;;;;;;;;2114379;28;19923;-56
2021/10/11 06:15:34;;;;;;;;;;;;;;;;;;2114405;28;20014;-56
2021/10/11 06:16:35;;;;;;;;;;;;;;;;;;2114408;28;20301;-56
2021/10/11 06:17:36;;;;;;;;;;;;;;;;;;2114472;28;19924;-55
2021/10/11 06:18:37;;;;;;;;;;;;;;;;;;2114289;28;19923;-56
2021/10/11 06:19:38;;;;;;;;;;;;;;;;;;2114225;28;19923;-57
2021/10/11 06:20:39;;;;;;;;;;;;;;;;;;2114325;28;19931;-56
2021/10/11 06:21:40;;;;;;;;;;;;;;;;;;2114460;28;20452;-56
2021/10/11 06:22:41;;;;;;;;;;;;;;;;;;2114306;28;19928;-56
2021/10/11 06:23:42;;;;;;;;;;;;;;;;;;2114440;28;19923;-56
2021/10/11 06:24:42;;;;;;;;;;;;;;;;;;2114159;28;20460;-56
2021/10/11 06:25:43;;;;;;;;;;;;;;;;;;2114457;28;20308;-57
2021/10/11 06:26:44;;;;;;;;;;;;;;;;;;2114241;28;20316;-57
2021/10/11 06:27:45;;;;;;;;;;;;;;;;;;2114369;28;20307;-56
2021/10/11 06:28:46;;;;;;;;;;;;;;;;;;2114170;28;19930;-56
2021/10/11 06:29:47;;;;;;;;;;;;;;;;;;2114660;28;19930;-56
2021/10/11 06:30:48;;;;;;;;;;;;;;;;;;2114008;28;19936;-57
2021/10/11 06:31:48;;;;;;;;;;;;;;;;;;2114515;28;20300;-57
2021/10/11 06:32:49;;;;;;;;;;;;;;;;;;2114216;28;19924;-57
2021/10/11 06:33:50;;;;;;;;;;;;;;;;;;2114334;28;19924;-57
2021/10/11 06:34:51;;;;;;;;;;;;;;;;;;2114118;28;19928;-57
2021/10/11 06:35:51;;;;;;;;;;;;;;;;;;2114369;28;19930;-57
2021/10/11 06:36:52;;;;;;;;;;;;;;;;;;2114081;28;19931;-57
2021/10/11 06:37:55;;;;;;;;;;;;;;;;;;2114349;28;20080;-57
2021/10/11 06:38:56;;;;;;;;;;;;;;;;;;2114151;28;19928;-57
2021/10/11 06:39:56;;;;;;;;;;;;;;;;;;2114403;28;19979;-57
2021/10/11 06:40:57;;;;;;;;;;;;;;;;;;2114157;28;20418;-57
2021/10/11 06:41:58;;;;;;;;;;;;;;;;;;2114269;28;19924;-57
2021/10/11 06:42:59;;;;;;;;;;;;;;;;;;2114088;28;19930;-57
2021/10/11 06:44:00;;;;;;;;;;;;;;;;;;2114360;28;20400;-57
2021/10/11 06:45:01;;;;;;;;;;;;;;;;;;2114203;28;19924;-57
2021/10/11 06:46:04;;;;;;;;;;;;;;;;;;2114160;28;19931;-57
2021/10/11 06:47:05;;;;;;;;;;;;;;;;;;2114017;28;19931;-57
2021/10/11 06:48:06;;;;;;;;;;;;;;;;;;2114342;28;19977;-57
2021/10/11 06:49:07;;;;;;;;;;;;;;;;;;2114164;28;19923;-57
2021/10/11 06:50:08;;;;;;;;;;;;;;;;;;2114414;28;19984;-57
2021/10/11 06:51:09;;;;;;;;;;;;;;;;;;2114041;28;19924;-57
2021/10/11 06:52:09;;;;;;;;;;;;;;;;;;2114328;28;19924;-57
2021/10/11 06:53:10;;;;;;;;;;;;;;;;;;2114201;28;19924;-57
2021/10/11 06:54:11;;;;;;;;;;;;;;;;;;2114182;28;20381;-57
2021/10/11 06:55:12;;;;;;;;;;;;;;;;;;2114183;28;19967;-57
2021/10/11 06:56:13;;;;;;;;;;;;;;;;;;2114155;28;19923;-57